Time;durP1;ratioP1;P1;durP2;ratioP2;P2;SDS_P1;SDS_P2;PMS_P1;PMS_P2;Temp;Humidity;BMP_temperature;BMP_pressure;BME280_temperature;BME280_humidity;BME280_pressure;Samples;Min_cycle;Max_cycle;Signal;HPM_P1;HPM_P2
2024/02/17 00:01:00;;;;;;;3.05;1.70;;;;;;;31.03;61.79;101143.03;5039535;28;69774;-33
2024/02/17 00:03:31;;;;;;;1.48;1.38;;;;;;;31.00;61.66;101138.06;5038379;28;65896;-35
2024/02/17 00:06:01;;;;;;;3.28;1.20;;;;;;;30.97;61.83;101149.31;5036751;28;70968;-34
2024/02/17 00:08:32;;;;;;;2.75;1.50;;;;;;;30.96;61.73;101155.78;5038537;28;64824;-34
2024/02/17 00:11:03;;;;;;;1.45;1.35;;;;;;;30.95;61.56;101156.81;5032405;28;70442;-33
2024/02/17 00:13:33;;;;;;;1.70;1.60;;;;;;;30.96;61.65;101155.78;5038010;28;65083;-34
2024/02/17 00:16:07;;;;;;;2.05;1.38;;;;;;;30.98;61.74;101159.13;5039270;28;69828;-33
2024/02/17 00:18:38;;;;;;;2.95;1.48;;;;;;;30.96;61.99;101166.63;5029893;28;66113;-33
2024/02/17 00:21:08;;;;;;;1.60;1.30;;;;;;;30.89;62.15;101158.50;5038471;28;70431;-34
2024/02/17 00:23:39;;;;;;;1.52;1.42;;;;;;;30.91;61.49;101163.72;5038991;28;66847;-33
2024/02/17 00:26:09;;;;;;;1.40;1.30;;;;;;;30.96;61.94;101171.22;5035415;28;70546;-32
2024/02/17 00:28:40;;;;;;;1.35;1.25;;;;;;;30.94;61.98;101174.13;5037516;28;65800;-33
2024/02/17 00:31:10;;;;;;;1.80;1.70;;;;;;;30.94;61.60;101179.56;5031429;28;70547;-33
2024/02/17 00:33:40;;;;;;;4.47;1.27;;;;;;;30.92;61.67;101176.22;5036894;28;66166;-34
2024/02/17 00:36:11;;;;;;;1.40;1.20;;;;;;;30.97;61.49;101187.25;5038717;28;70359;-33
2024/02/17 00:38:44;;;;;;;1.33;1.23;;;;;;;30.93;62.03;101181.44;5030089;28;66091;-33
2024/02/17 00:41:14;;;;;;;1.55;1.45;;;;;;;30.92;61.71;101187.91;5035306;28;70306;-33
2024/02/17 00:43:45;;;;;;;1.40;1.30;;;;;;;30.91;61.75;101182.69;5038885;28;66204;-33
2024/02/17 00:46:15;;;;;;;2.92;1.75;;;;;;;30.94;61.43;101190.38;5038420;28;69408;-33
2024/02/17 00:48:47;;;;;;;1.40;1.30;;;;;;;30.81;61.88;101174.16;5039150;28;67465;-33
2024/02/17 00:51:18;;;;;;;1.90;1.80;;;;;;;30.95;61.90;101197.47;5038855;28;70588;-32
2024/02/17 00:53:48;;;;;;;1.88;1.70;;;;;;;30.72;61.98;101177.06;5040105;28;66769;-33
2024/02/17 00:56:24;;;;;;;2.05;1.83;;;;;;;30.90;61.67;101205.41;5037292;28;70605;-33
2024/02/17 00:58:55;;;;;;;1.70;1.60;;;;;;;30.91;61.65;101201.66;5039168;28;65931;-33
2024/02/17 01:01:28;;;;;;;2.05;1.80;;;;;;;30.93;61.73;101205.00;5038272;28;70071;-33
2024/02/17 01:04:08;;;;;;;2.05;1.90;;;;;;;30.90;61.49;101210.84;5038449;28;66106;-33
2024/02/17 01:06:38;;;;;;;1.70;1.60;;;;;;;30.92;61.40;101209.56;5039067;28;70987;-34
2024/02/17 01:09:10;;;;;;;2.13;1.60;;;;;;;30.93;61.18;101221.25;5037688;28;65799;-32
2024/02/17 01:11:40;;;;;;;2.57;2.07;;;;;;;30.92;61.79;101212.28;5039918;28;69425;-34
2024/02/17 01:14:11;;;;;;;1.92;1.83;;;;;;;30.93;61.45;101221.25;5037842;28;65590;-34
2024/02/17 01:16:43;;;;;;;2.00;1.90;;;;;;;30.91;61.31;101223.31;5036509;28;69875;-34
2024/02/17 01:19:14;;;;;;;2.58;1.90;;;;;;;30.93;61.35;101237.50;5039192;28;65989;-33
2024/02/17 01:21:45;;;;;;;1.70;1.60;;;;;;;30.97;61.24;101244.13;5036006;28;70225;-33
2024/02/17 01:24:16;;;;;;;1.58;1.48;;;;;;;30.96;61.58;101242.47;5039270;28;66723;-33
2024/02/17 01:26:47;;;;;;;1.98;1.88;;;;;;;31.00;61.07;101249.13;5037785;28;70278;-39
2024/02/17 01:29:18;;;;;;;2.00;1.90;;;;;;;30.96;61.56;101253.31;5035984;28;66409;-33
2024/02/17 01:31:51;;;;;;;1.92;1.65;;;;;;;31.03;60.92;101264.97;5036776;28;70657;-32
2024/02/17 01:34:21;;;;;;;1.50;1.40;;;;;;;31.01;61.62;101258.94;5037152;28;66521;-32
2024/02/17 01:36:52;;;;;;;1.50;1.40;;;;;;;30.86;61.42;101245.63;5032918;28;69779;-32
2024/02/17 01:39:24;;;;;;;1.52;1.42;;;;;;;30.98;61.30;101259.38;5037788;28;66759;-34
2024/02/17 01:41:57;;;;;;;1.48;1.25;;;;;;;31.00;61.64;101265.38;5038885;28;69998;-34
2024/02/17 01:44:28;;;;;;;1.80;1.40;;;;;;;30.99;61.18;101263.72;5033710;28;65541;-34
2024/02/17 01:46:58;;;;;;;1.73;1.63;;;;;;;31.02;61.00;101266.00;5036963;28;69697;-34
2024/02/17 01:49:29;;;;;;;1.70;1.60;;;;;;;31.05;61.22;101273.72;5051610;28;66317;-34
2024/02/17 01:52:02;;;;;;;8.55;1.58;;;;;;;31.05;60.85;101273.72;5037640;28;69638;-33
2024/02/17 01:54:33;;;;;;;1.55;1.45;;;;;;;31.07;60.94;101270.81;5036597;28;65508;-32
2024/02/17 01:57:05;;;;;;;1.23;1.10;;;;;;;31.09;61.25;101271.41;5036955;28;71888;-33
2024/02/17 01:59:38;;;;;;;1.55;1.33;;;;;;;31.09;61.20;101264.13;5038132;28;66597;-33
2024/02/17 02:02:09;;;;;;;2.35;1.48;;;;;;;31.09;60.92;101269.56;5038264;28;71114;-33
2024/02/17 02:04:40;;;;;;;1.20;1.10;;;;;;;31.12;61.27;101263.69;5035683;28;67143;-34
2024/02/17 02:07:11;;;;;;;1.98;1.33;;;;;;;31.11;60.68;101272.84;5036666;28;69534;-33
2024/02/17 02:09:41;;;;;;;1.35;1.25;;;;;;;31.22;60.85;101270.53;5035046;28;66562;-33
2024/02/17 02:12:12;;;;;;;1.35;1.25;;;;;;;31.17;60.82;101269.31;5032023;28;69654;-33
2024/02/17 02:14:43;;;;;;;2.40;1.25;;;;;;;31.20;61.27;101270.75;5034403;28;66950;-33
2024/02/17 02:17:13;;;;;;;2.75;1.60;;;;;;;31.15;60.94;101268.69;5034524;28;70863;-33
2024/02/17 02:19:47;;;;;;;1.98;1.25;;;;;;;31.20;60.56;101270.75;5029753;28;67132;-34
2024/02/17 02:22:18;;;;;;;1.75;1.48;;;;;;;31.24;61.13;101287.44;5019633;28;70153;-34
2024/02/17 02:24:50;;;;;;;1.40;1.25;;;;;;;30.87;60.71;101205.81;5028020;28;65225;-33
2024/02/17 02:27:21;;;;;;;1.25;1.15;;;;;;;31.28;60.64;101283.22;5036105;28;70841;-33
2024/02/17 02:29:55;;;;;;;1.20;1.10;;;;;;;31.31;60.71;101282.81;5035929;28;65697;-34
2024/02/17 02:32:27;;;;;;;1.77;1.30;;;;;;;31.32;60.90;101269.06;5034079;28;70053;-34
2024/02/17 02:34:59;;;;;;;1.13;1.02;;;;;;;31.34;60.36;101268.81;5037671;28;66775;-34
2024/02/17 02:37:30;;;;;;;1.52;1.25;;;;;;;31.36;60.35;101274.91;5040008;28;70479;-34
2024/02/17 02:40:01;;;;;;;1.30;1.20;;;;;;;31.32;60.76;101273.66;5033822;28;66390;-34
2024/02/17 02:42:31;;;;;;;1.70;1.50;;;;;;;31.35;60.65;101262.38;5041500;28;70469;-33
2024/02/17 02:45:02;;;;;;;1.23;1.13;;;;;;;31.44;60.62;101271.94;5041026;28;66659;-33
2024/02/17 02:47:33;;;;;;;1.92;1.50;;;;;;;31.43;60.40;101264.88;5039174;28;70215;-33
2024/02/17 02:50:04;;;;;;;2.10;1.20;;;;;;;31.48;60.39;101273.19;5038321;28;66443;-33
2024/02/17 02:52:35;;;;;;;3.20;1.50;;;;;;;31.45;60.43;101268.19;5040327;28;69223;-34
2024/02/17 02:55:06;;;;;;;3.33;1.25;;;;;;;31.47;60.48;101262.56;5037614;28;65833;-33
2024/02/17 02:57:36;;;;;;;3.53;1.05;;;;;;;31.52;59.91;101266.28;5040192;28;70156;-34
2024/02/17 03:00:08;;;;;;;1.10;0.98;;;;;;;31.54;60.24;101266.91;5040798;28;66309;-33
2024/02/17 03:02:38;;;;;;;5.63;1.30;;;;;;;31.55;59.91;101263.13;5037566;28;70440;-33
2024/02/17 03:05:09;;;;;;;1.20;1.10;;;;;;;31.56;60.07;101256.66;5039664;28;66647;-33
2024/02/17 03:07:40;;;;;;;1.25;1.15;;;;;;;31.57;59.96;101244.78;5035036;28;70483;-33
2024/02/17 03:10:11;;;;;;;1.08;0.90;;;;;;;31.57;60.36;101239.34;5034841;28;66322;-33
2024/02/17 03:12:42;;;;;;;1.10;1.00;;;;;;;31.60;60.18;101244.34;5035608;28;69803;-34
2024/02/17 03:15:12;;;;;;;1.23;1.00;;;;;;;31.63;60.45;101236.84;5039831;28;66261;-34
2024/02/17 03:17:43;;;;;;;2.38;1.10;;;;;;;31.66;60.17;101225.56;5040047;28;70287;-34
2024/02/17 03:20:16;;;;;;;6.15;1.02;;;;;;;31.52;60.35;101198.50;5040724;28;65646;-37
2024/02/17 03:22:46;;;;;;;;;;;;;;;31.56;60.09;101232.25;5039130;28;70527;-34
2024/02/17 03:25:16;;;;;;;0.80;0.80;;;;;;;31.74;59.96;101222.59;5040819;28;66510;-35
2024/02/17 03:27:47;;;;;;;0.95;0.90;;;;;;;31.74;60.00;101211.72;5039729;28;69411;-33
2024/02/17 03:30:18;;;;;;;3.33;1.02;;;;;;;31.74;59.70;101209.03;5038146;28;65865;-34
2024/02/17 03:32:49;;;;;;;1.20;0.75;;;;;;;31.79;59.67;101207.31;5039463;28;69736;-34
2024/02/17 03:35:20;;;;;;;1.65;0.70;;;;;;;31.83;59.81;101208.53;5039886;28;65826;-34
2024/02/17 03:37:51;;;;;;;0.93;0.80;;;;;;;31.72;59.79;101175.84;5037817;28;69754;-34
2024/02/17 03:40:21;;;;;;;1.38;1.02;;;;;;;31.86;59.70;101185.56;5039474;28;66714;-34
2024/02/17 03:42:52;;;;;;;0.95;0.73;;;;;;;31.89;59.39;101195.97;5036876;28;70360;-34
2024/02/17 03:45:22;;;;;;;0.82;0.82;;;;;;;31.65;59.64;101145.22;5036604;28;66237;-36
2024/02/17 03:47:55;;;;;;;1.42;0.98;;;;;;;31.91;59.72;101180.34;5037878;28;71405;-35
2024/02/17 03:50:25;;;;;;;1.95;0.90;;;;;;;31.95;59.84;101176.13;5039293;28;66900;-32
2024/02/17 03:52:57;;;;;;;0.60;0.60;;;;;;;31.98;59.45;101180.28;5036127;28;69687;-34
2024/02/17 03:55:27;;;;;;;1.03;0.90;;;;;;;31.98;59.60;101174.84;5038813;28;66343;-35
2024/02/17 03:57:58;;;;;;;0.90;0.90;;;;;;;32.03;59.51;101173.13;5038430;28;70652;-36
2024/02/17 04:00:29;;;;;;;1.30;0.70;;;;;;;32.03;59.22;101161.44;5039218;28;66918;-36
2024/02/17 04:03:01;;;;;;;0.82;0.80;;;;;;;32.04;59.54;101163.97;5039918;28;69927;-35
2024/02/17 04:05:32;;;;;;;1.15;0.88;;;;;;;32.12;59.16;101165.53;5036367;28;65972;-34
2024/02/17 04:08:03;;;;;;;0.77;0.77;;;;;;;32.07;59.22;101157.25;5039678;28;70125;-35
2024/02/17 04:10:36;;;;;;;1.53;1.17;;;;;;;32.13;59.23;101155.53;5039718;28;66143;-35
2024/02/17 04:13:07;;;;;;;1.48;1.10;;;;;;;32.17;59.20;101148.59;5036335;28;69875;-35
2024/02/17 04:15:39;;;;;;;0.80;0.80;;;;;;;32.08;59.08;101130.94;5040180;28;66733;-35
2024/02/17 04:18:12;;;;;;;0.77;0.77;;;;;;;32.22;58.80;101148.75;5037307;28;69356;-35
2024/02/17 04:20:44;;;;;;;0.80;0.75;;;;;;;32.22;58.99;101146.06;5034843;28;65986;-36
2024/02/17 04:23:15;;;;;;;0.70;0.70;;;;;;;32.26;58.92;101139.09;5039237;28;70073;-34
2024/02/17 04:25:48;;;;;;;0.80;0.80;;;;;;;32.25;58.89;101132.03;5038887;28;43060;-35
2024/02/17 04:28:19;;;;;;;1.20;0.80;;;;;;;32.31;58.71;101131.13;5040301;28;70377;-36
2024/02/17 04:30:50;;;;;;;1.08;0.68;;;;;;;32.33;58.93;101131.75;5040246;28;66813;-33
2024/02/17 04:33:23;;;;;;;1.00;0.85;;;;;;;32.34;58.91;101124.41;5039355;28;70080;-41
2024/02/17 04:35:54;;;;;;;0.67;0.67;;;;;;;32.33;58.69;101115.44;5038962;28;66726;-35
2024/02/17 04:38:25;;;;;;;0.80;0.70;;;;;;;32.40;58.78;101113.50;5039643;28;69523;-34
2024/02/17 04:40:56;;;;;;;3.47;0.73;;;;;;;32.40;58.16;101108.09;5038034;28;66557;-35
2024/02/17 04:43:27;;;;;;;0.90;0.70;;;;;;;32.45;58.90;101107.38;5039285;28;70596;-34
2024/02/17 04:45:57;;;;;;;1.67;0.80;;;;;;;32.45;58.52;101094.63;5035348;28;66775;-35
2024/02/17 04:48:28;;;;;;;1.90;0.90;;;;;;;32.50;58.40;101102.13;5036371;28;69173;-37
2024/02/17 04:50:59;;;;;;;0.98;0.98;;;;;;;32.49;58.46;101090.47;5038320;28;65825;-35
2024/02/17 04:53:30;;;;;;;0.75;0.70;;;;;;;32.55;58.57;101094.16;5036364;28;69829;-36
2024/02/17 04:56:03;;;;;;;0.70;0.70;;;;;;;32.58;58.29;101090.16;5033610;28;66187;-33
2024/02/17 04:58:33;;;;;;;0.80;0.80;;;;;;;32.53;58.32;101073.72;5038862;28;70298;-34
2024/02/17 05:01:05;;;;;;;0.75;0.68;;;;;;;32.63;58.24;101079.44;5039101;28;66227;-34
2024/02/17 05:03:36;;;;;;;0.95;0.73;;;;;;;32.62;58.30;101072.34;5030753;28;69645;-34
2024/02/17 05:06:12;;;;;;;1.20;1.00;;;;;;;32.67;58.35;101069.78;5036658;28;66366;-34
2024/02/17 05:08:43;;;;;;;1.00;0.88;;;;;;;32.69;58.16;101065.78;5037299;28;70444;-34
2024/02/17 05:11:15;;;;;;;1.10;0.82;;;;;;;32.73;58.17;101057.97;5039193;28;65423;-34
2024/02/17 05:13:46;;;;;;;0.90;0.90;;;;;;;32.77;58.17;101052.94;5039465;28;70175;-33
2024/02/17 05:16:17;;;;;;;0.68;0.65;;;;;;;32.78;58.11;101049.97;5036779;28;65391;-34
2024/02/17 05:18:48;;;;;;;1.40;1.10;;;;;;;32.71;57.97;101041.09;5038100;28;70095;-34
2024/02/17 05:21:20;;;;;;;0.80;0.80;;;;;;;32.82;57.87;101040.31;5038395;28;66238;-35
2024/02/17 05:23:51;;;;;;;1.67;1.10;;;;;;;32.83;58.04;101035.72;5033683;28;69956;-35
2024/02/17 05:26:21;;;;;;;0.80;0.80;;;;;;;32.90;57.84;101033.72;5039338;28;66142;-36
2024/02/17 05:28:52;;;;;;;1.60;0.90;;;;;;;32.90;57.88;101021.00;5038360;28;70253;-35
2024/02/17 05:31:27;;;;;;;1.25;0.90;;;;;;;32.71;57.82;100986.78;5035819;28;66658;-35
2024/02/17 05:34:02;;;;;;;1.05;1.00;;;;;;;32.61;57.79;100956.63;5036189;28;70426;-34
2024/02/17 05:36:33;;;;;;;1.50;0.90;;;;;;;32.92;57.64;101009.88;5021202;28;65423;-35
2024/02/17 05:39:04;;;;;;;0.90;0.83;;;;;;;32.99;58.02;101001.59;5038135;28;71841;-35
2024/02/17 05:41:35;;;;;;;1.20;0.93;;;;;;;33.04;57.91;100993.63;5039039;28;66288;-34
2024/02/17 05:44:07;;;;;;;2.97;1.02;;;;;;;32.92;57.77;100980.81;5036750;28;70197;-33
2024/02/17 05:46:38;;;;;;;0.75;0.75;;;;;;;33.06;57.84;100991.50;5039376;28;66489;-34
2024/02/17 05:49:10;;;;;;;0.70;0.70;;;;;;;33.11;57.59;100978.06;5038028;28;70042;-33
2024/02/17 05:51:43;;;;;;;0.65;0.65;;;;;;;33.11;57.58;100978.06;5026607;28;64843;-36
2024/02/17 05:54:14;;;;;;;1.00;0.70;;;;;;;33.12;57.35;100968.84;5037690;28;71591;-33
2024/02/17 05:56:46;;;;;;;1.50;1.00;;;;;;;33.18;57.67;100967.88;5034487;28;66765;-34
2024/02/17 05:59:17;;;;;;;1.05;0.90;;;;;;;33.12;57.74;100952.53;5035525;28;69978;-34
2024/02/17 06:01:48;;;;;;;1.20;0.85;;;;;;;33.15;57.40;100955.63;5037669;28;66737;-37
2024/02/17 06:04:22;;;;;;;0.93;0.90;;;;;;;33.25;56.93;100963.19;5038099;28;69257;-37
2024/02/17 06:06:53;;;;;;;0.80;0.80;;;;;;;33.27;57.42;100955.63;5036845;28;66248;-36
2024/02/17 06:09:24;;;;;;;0.70;0.70;;;;;;;33.25;57.34;100946.88;5037037;28;70980;-35
2024/02/17 06:11:55;;;;;;;1.13;0.90;;;;;;;33.31;57.47;100945.94;5041129;28;65214;-33
2024/02/17 06:14:27;;;;;;;1.25;0.85;;;;;;;33.35;57.13;100947.13;5040434;28;70282;-36
2024/02/17 06:17:06;;;;;;;0.73;0.73;;;;;;;33.20;57.04;100914.13;5041800;28;66496;-35
2024/02/17 06:22:27;;;;;;;0.80;0.60;;;;;;;33.38;57.46;100927.63;5041770;28;65433;-33
2024/02/17 06:24:58;;;;;;;1.48;1.13;;;;;;;33.42;57.20;100916.25;5039401;28;70167;-34
2024/02/17 06:27:29;;;;;;;0.77;0.70;;;;;;;33.46;56.97;100904.69;5039220;28;66279;-33
2024/02/17 06:30:01;;;;;;;1.17;1.10;;;;;;;33.45;56.95;100910.34;5041228;28;70055;-36
2024/02/17 06:32:32;;;;;;;1.08;0.95;;;;;;;33.49;57.16;100915.09;5040487;28;67169;-34
2024/02/17 06:35:03;;;;;;;1.23;1.13;;;;;;;33.53;57.03;100904.59;5041084;28;70268;-36
2024/02/17 06:37:34;;;;;;;1.20;1.10;;;;;;;33.55;56.67;100897.03;5032338;28;67599;-33
2024/02/17 06:40:06;;;;;;;2.15;1.30;;;;;;;33.58;56.88;100878.31;5040856;28;70822;-35
2024/02/17 06:42:37;;;;;;;1.10;1.00;;;;;;;33.58;56.93;100881.03;5041051;28;66246;-33
2024/02/17 06:45:10;;;;;;;1.53;1.40;;;;;;;33.60;57.03;100869.94;5039745;28;70552;-34
2024/02/17 06:47:47;;;;;;;1.33;1.23;;;;;;;33.67;56.42;100862.47;5040874;28;66333;-36
2024/02/17 06:50:18;;;;;;;1.42;1.33;;;;;;;33.71;56.71;100873.69;5041607;28;70050;-36
2024/02/17 06:52:54;;;;;;;1.13;1.05;;;;;;;33.71;56.24;100879.97;5046209;28;65638;-35
2024/02/17 06:55:24;;;;;;;4.60;1.20;;;;;;;33.74;56.34;100868.59;5040791;28;69789;-33
2024/02/17 06:57:55;;;;;;;1.30;1.20;;;;;;;33.76;56.09;100863.72;5040294;28;65837;-33
2024/02/17 07:00:27;;;;;;;1.57;1.47;;;;;;;33.83;56.64;100865.50;5039314;28;70122;-34
2024/02/17 07:02:58;;;;;;;1.45;1.05;;;;;;;33.86;56.56;100870.47;5039965;28;66102;-35
2024/02/17 07:05:32;;;;;;;1.38;1.27;;;;;;;33.90;56.33;100868.91;5035549;28;70058;-33
2024/02/17 07:08:05;;;;;;;;;;;;;;;33.87;55.90;100861.22;5040241;28;65562;-33
2024/02/17 07:10:36;;;;;;;1.23;1.13;;;;;;;34.02;55.68;100850.66;5038943;28;70072;-34
2024/02/17 07:13:08;;;;;;;1.45;1.20;;;;;;;34.00;55.91;100859.06;5038621;28;66560;-34
2024/02/17 07:15:44;;;;;;;1.50;1.23;;;;;;;34.02;55.83;100859.66;5040311;28;70279;-34
2024/02/17 07:18:16;;;;;;;0.93;0.90;;;;;;;34.08;56.19;100859.78;5040553;28;65703;-34
2024/02/17 07:20:48;;;;;;;1.65;1.02;;;;;;;34.14;56.05;100845.19;5039079;28;70985;-35
2024/02/17 07:23:28;;;;;;;0.98;0.98;;;;;;;34.16;56.14;100849.31;5041140;28;66606;-36
2024/02/17 07:26:03;;;;;;;1.10;1.00;;;;;;;34.19;55.96;100843.38;5039192;28;69851;-34
2024/02/17 07:28:38;;;;;;;1.00;1.00;;;;;;;34.23;55.87;100839.09;5039952;28;66201;-34
2024/02/17 07:31:15;;;;;;;1.92;1.10;;;;;;;34.23;55.98;100832.84;5032386;28;70262;-34
2024/02/17 07:33:52;;;;;;;1.33;1.20;;;;;;;34.29;55.92;100831.03;5039944;28;66554;-34
2024/02/17 07:36:25;;;;;;;1.20;1.10;;;;;;;34.32;55.97;100833.25;5040220;28;69282;-34
2024/02/17 07:38:58;;;;;;;0.88;0.88;;;;;;;34.41;55.86;100834.53;5035375;28;67055;-34
2024/02/17 07:41:29;;;;;;;2.50;1.10;;;;;;;34.44;55.61;100834.03;5040404;28;70180;-37
2024/02/17 07:44:00;;;;;;;1.80;1.60;;;;;;;34.47;55.55;100833.53;5033505;28;66578;-33
2024/02/17 07:46:32;;;;;;;0.90;0.90;;;;;;;34.49;55.38;100815.03;5037630;28;70053;-34
2024/02/17 07:49:03;;;;;;;0.90;0.90;;;;;;;34.60;55.44;100816.91;5039825;28;66339;-34
2024/02/17 07:51:35;;;;;;;1.45;1.20;;;;;;;34.65;55.39;100822.41;5035637;28;70636;-33
2024/02/17 07:54:06;;;;;;;;;;;;;;;34.59;54.71;100826.13;5040537;28;66307;-34
2024/02/17 07:56:36;;;;;;;1.13;1.02;;;;;;;34.69;55.54;100815.41;5038574;28;69955;-34
2024/02/17 07:59:08;;;;;;;0.98;0.90;;;;;;;34.79;55.28;100822.09;5038251;28;65533;-33
2024/02/17 08:01:39;;;;;;;0.88;0.80;;;;;;;34.86;55.48;100825.47;5040112;28;68833;-34
2024/02/17 08:04:10;;;;;;;1.23;1.13;;;;;;;34.89;55.39;100817.63;5040368;28;66085;-34
2024/02/17 08:06:41;;;;;;;1.33;1.10;;;;;;;34.93;54.74;100820.66;5037781;28;69246;-33
2024/02/17 08:09:13;;;;;;;1.20;0.63;;;;;;;35.01;55.23;100817.53;5039016;28;67301;-34
2024/02/17 08:11:51;;;;;;;0.82;0.82;;;;;;;34.88;54.26;100785.16;5039262;28;70087;-38
2024/02/17 08:14:23;;;;;;;1.23;1.10;;;;;;;35.06;54.89;100804.00;5036707;28;66567;-36
2024/02/17 08:17:00;;;;;;;0.95;0.85;;;;;;;35.15;55.13;100818.03;5031369;28;69999;-34
2024/02/17 08:19:30;;;;;;;0.85;0.85;;;;;;;35.18;55.07;100809.34;5034172;28;66353;-33
2024/02/17 08:22:03;;;;;;;0.93;0.90;;;;;;;35.27;54.50;100820.63;5039913;28;69451;-34
2024/02/17 08:24:37;;;;;;;1.70;0.90;;;;;;;35.29;54.84;100815.75;5040477;28;66303;-35
2024/02/17 08:27:12;;;;;;;;;;;;;;;35.25;53.79;100820.09;5032534;28;70186;-33
2024/02/17 08:29:42;;;;;;;3.42;0.93;;;;;;;35.32;54.67;100796.16;5036399;28;66393;-34
2024/02/17 08:32:15;;;;;;;1.45;0.88;;;;;;;35.53;54.49;100811.72;5038258;28;69526;-33
2024/02/17 08:34:48;;;;;;;0.83;0.70;;;;;;;35.52;54.23;100814.69;5037099;28;65536;-34
2024/02/17 08:37:21;;;;;;;0.93;0.80;;;;;;;35.50;54.36;100798.59;5029334;28;70010;-35
2024/02/17 08:39:52;;;;;;;1.23;0.77;;;;;;;35.65;54.05;100813.53;5025070;28;66662;-33
2024/02/17 08:42:24;;;;;;;1.08;0.98;;;;;;;35.70;53.54;100814.41;5039310;28;69732;-33
2024/02/17 08:44:55;;;;;;;2.20;1.13;;;;;;;35.83;54.21;100824.13;5037630;28;65992;-33
2024/02/17 08:47:26;;;;;;;0.82;0.82;;;;;;;35.86;54.05;100826.34;5037677;28;69933;-35
2024/02/17 08:49:58;;;;;;;0.90;0.63;;;;;;;35.88;53.72;100815.13;5037457;28;67006;-34
2024/02/17 08:52:30;;;;;;;1.02;0.80;;;;;;;36.00;53.41;100816.66;5051484;28;70495;-33
2024/02/17 08:55:01;;;;;;;1.08;0.98;;;;;;;36.06;53.32;100811.28;5037778;28;66342;-34
2024/02/17 08:57:34;;;;;;;1.10;1.05;;;;;;;36.06;53.87;100816.75;5038314;28;70834;-35
2024/02/17 09:00:06;;;;;;;3.63;0.98;;;;;;;36.15;53.79;100820.66;5039175;28;67006;-34
2024/02/17 09:02:38;;;;;;;0.80;0.80;;;;;;;36.20;53.29;100817.97;5040162;28;70371;-34
2024/02/17 09:05:13;;;;;;;1.08;0.98;;;;;;;36.26;53.48;100822.41;5040199;28;66448;-37
2024/02/17 09:07:45;;;;;;;1.20;1.10;;;;;;;36.30;52.91;100828.97;5038431;28;70974;-36
2024/02/17 09:10:16;;;;;;;1.00;0.90;;;;;;;36.37;52.72;100824.13;5038622;28;65982;-33
2024/02/17 09:12:47;;;;;;;1.27;0.88;;;;;;;36.38;53.31;100825.78;5039288;28;70002;-34
2024/02/17 09:15:23;;;;;;;0.90;0.90;;;;;;;36.47;53.35;100823.41;5039283;28;66764;-33
2024/02/17 09:17:54;;;;;;;2.47;1.00;;;;;;;36.52;52.54;100825.34;5038289;28;70225;-34
2024/02/17 09:20:29;;;;;;;1.15;1.05;;;;;;;36.61;52.99;100837.47;5036933;28;65726;-33
2024/02/17 09:23:00;;;;;;;1.70;1.05;;;;;;;36.64;52.51;100834.25;5038786;28;69795;-34
2024/02/17 09:25:39;;;;;;;1.27;1.08;;;;;;;36.74;52.90;100837.03;5037261;28;65884;-33
2024/02/17 09:28:10;;;;;;;0.80;0.80;;;;;;;36.75;51.65;100833.22;5021976;28;70299;-35
2024/02/17 09:30:40;;;;;;;0.97;0.83;;;;;;;36.78;52.14;100832.72;5040024;28;66047;-34
2024/02/17 09:33:11;;;;;;;0.73;0.73;;;;;;;36.87;51.98;100836.59;5040056;28;70053;-35
2024/02/17 09:35:42;;;;;;;0.95;0.85;;;;;;;36.85;52.27;100830.56;5040400;28;66703;-34
2024/02/17 09:38:15;;;;;;;1.88;0.75;;;;;;;36.99;51.79;100846.50;5039030;28;70505;-34
2024/02/17 09:40:54;;;;;;;1.42;1.08;;;;;;;36.99;51.89;100838.31;5039118;28;66547;-35
2024/02/17 09:43:25;;;;;;;1.38;1.10;;;;;;;37.05;52.42;100853.69;5038209;28;70097;-35
2024/02/17 09:45:57;;;;;;;1.33;1.00;;;;;;;37.03;51.84;100853.16;5039495;28;65880;-35
2024/02/17 09:48:33;;;;;;;1.35;1.10;;;;;;;37.11;51.60;100855.34;5038049;28;69196;-36
2024/02/17 09:51:08;;;;;;;0.73;0.73;;;;;;;37.17;51.82;100854.31;5038541;28;66264;-34
2024/02/17 09:53:42;;;;;;;1.10;1.00;;;;;;;37.23;51.89;100853.25;5028700;28;70181;-36
2024/02/17 09:56:15;;;;;;;1.42;1.10;;;;;;;37.07;50.93;100826.91;5026326;28;66067;-35
2024/02/17 09:58:46;;;;;;;0.75;0.70;;;;;;;37.23;51.70;100847.78;5038785;28;69406;-34
2024/02/17 10:01:26;;;;;;;2.00;1.10;;;;;;;37.32;51.60;100859.88;5036645;28;66483;-34
2024/02/17 10:03:58;;;;;;;1.45;1.35;;;;;;;37.40;51.16;100857.72;5039123;28;70136;-34
2024/02/17 10:06:29;;;;;;;1.55;1.13;;;;;;;37.33;51.41;100852.47;5032746;28;66243;-34
2024/02/17 10:09:02;;;;;;;1.23;1.08;;;;;;;37.35;50.66;100853.88;5038503;28;71387;-33
2024/02/17 10:11:34;;;;;;;1.25;0.95;;;;;;;37.45;51.23;100858.59;5038589;28;66718;-36
2024/02/17 10:14:06;;;;;;;1.67;1.58;;;;;;;37.46;51.00;100862.13;5035799;28;70136;-33
2024/02/17 10:16:41;;;;;;;1.40;0.98;;;;;;;37.46;51.06;100857.47;5038157;28;66470;-34
2024/02/17 10:19:14;;;;;;;1.38;0.90;;;;;;;37.24;50.87;100837.66;5037886;28;70526;-34
2024/02/17 10:21:48;;;;;;;1.60;1.20;;;;;;;37.45;50.91;100865.97;5031160;28;65898;-34
2024/02/17 10:24:21;;;;;;;1.13;0.90;;;;;;;37.30;51.27;100845.63;5031496;28;69274;-35
2024/02/17 10:26:56;;;;;;;1.55;1.10;;;;;;;37.42;51.15;100869.22;5032379;28;66177;-34
2024/02/17 10:29:28;;;;;;;1.50;1.30;;;;;;;37.41;50.93;100871.13;5035726;28;69323;-34
2024/02/17 10:32:01;;;;;;;1.52;1.10;;;;;;;37.41;51.38;100867.56;5038746;28;66624;-34
2024/02/17 10:34:33;;;;;;;2.25;1.02;;;;;;;37.39;51.49;100867.84;5038077;28;70435;-35
2024/02/17 10:37:04;;;;;;;1.13;1.00;;;;;;;37.34;51.30;100876.84;5038401;28;65054;-35
2024/02/17 10:39:35;;;;;;;1.38;1.00;;;;;;;37.34;51.39;100873.28;5037367;28;70215;-34
2024/02/17 10:42:05;;;;;;;1.13;0.90;;;;;;;37.32;51.37;100880.94;5026695;28;66387;-35
2024/02/17 10:44:36;;;;;;;0.85;0.70;;;;;;;37.29;51.49;100876.81;5035355;28;71386;-34
2024/02/17 10:47:08;;;;;;;1.00;0.88;;;;;;;37.29;51.80;100890.50;5027022;28;66265;-35
2024/02/17 10:49:54;;;;;;;0.75;0.60;;;;;;;37.22;51.41;100887.19;5025328;28;70208;-35
2024/02/17 10:52:33;;;;;;;1.00;0.85;;;;;;;37.00;51.11;100870.03;5039031;28;65437;-34
2024/02/17 10:55:13;;;;;;;1.30;0.90;;;;;;;37.11;51.81;100897.22;5026228;28;70005;-34
2024/02/17 10:57:48;;;;;;;4.35;1.10;;;;;;;37.13;51.33;100900.50;5041007;28;65244;-34
2024/02/17 11:00:23;;;;;;;0.85;0.80;;;;;;;37.07;51.71;100906.22;5042246;28;70720;-34
2024/02/17 11:03:01;;;;;;;1.02;0.88;;;;;;;37.07;52.04;100911.69;5039203;28;66257;-34
2024/02/17 11:05:40;;;;;;;1.15;1.05;;;;;;;37.01;51.71;100905.34;5040359;28;69428;-34
2024/02/17 11:08:11;;;;;;;1.00;0.90;;;;;;;36.86;51.66;100908.75;5041375;28;66042;-35
2024/02/17 11:10:43;;;;;;;1.13;1.00;;;;;;;36.88;51.96;100922.16;5039583;28;70114;-34
2024/02/17 11:13:26;;;;;;;0.88;0.80;;;;;;;36.76;52.11;100933.28;5041546;28;66340;-34
2024/02/17 11:16:04;;;;;;;1.30;1.20;;;;;;;36.75;52.56;100923.44;5040424;28;70474;-34
2024/02/17 11:18:41;;;;;;;1.10;1.00;;;;;;;36.76;51.49;100930.53;5039526;28;66932;-34
2024/02/17 11:21:14;;;;;;;1.45;0.90;;;;;;;36.66;51.91;100930.44;5035295;28;69137;-34
2024/02/17 11:23:47;;;;;;;1.20;1.10;;;;;;;36.66;52.56;100935.91;5033145;28;66061;-33
2024/02/17 11:26:24;;;;;;;1.20;1.10;;;;;;;36.59;52.52;100943.50;5039947;28;71059;-34
2024/02/17 11:29:09;;;;;;;1.30;1.13;;;;;;;36.58;52.72;100933.63;5039324;28;66797;-34
2024/02/17 11:31:43;;;;;;;1.10;1.00;;;;;;;36.45;52.29;100930.22;5038036;28;69799;-34
2024/02/17 11:34:14;;;;;;;1.48;1.10;;;;;;;36.47;52.18;100938.16;5037605;28;66281;-34
2024/02/17 11:36:51;;;;;;;1.10;1.10;;;;;;;36.42;52.44;100941.66;5033795;28;70533;-36
2024/02/17 11:39:24;;;;;;;1.48;0.90;;;;;;;36.32;52.84;100946.19;5040852;28;65767;-34
2024/02/17 11:41:59;;;;;;;0.88;0.80;;;;;;;36.15;52.57;100918.94;5039399;28;70315;-33
2024/02/17 11:44:31;;;;;;;1.30;1.20;;;;;;;36.27;53.01;100946.13;5040221;28;66105;-35
2024/02/17 11:47:02;;;;;;;1.20;1.10;;;;;;;36.23;52.99;100954.00;5035172;28;69448;-33
2024/02/17 11:49:39;;;;;;;1.57;1.07;;;;;;;36.13;52.56;100951.16;5040465;28;66551;-34
2024/02/17 11:52:14;;;;;;;1.35;1.20;;;;;;;36.10;53.43;100957.13;5039935;28;70127;-34